Saratoga, Wyoming
Current Conditions -  °F | °C
As of 8:55 AM on Sunday 23 Nov 2014 (Local Time) from KSAA Reporting Station
Overcast Overcast  
Wind Chill: 17°   Ceiling: 9000
Heat Index: 28°   Visibility: 10mi
Dew Point: 23°   Wind: 16mph
Humidity: 80%   Direction: 270°W
Pressure: 29.86"   Gusts: 22mph
Location:  41.45°N, 106.81°W
Report Text: KSAA 231555Z AUTO 27014G19KT 10SM SCT065 OVC090 M02/M05 A2986 RMK AO2
Loading
Personal Weather Stations






























Interactive Weather Map New forecast layout! Learn more

10-Day Weather Forecast

Advertisements
Track Severe Weather on mobile